createdAt,value
2023-05-09T00:00:05.101Z,0.00
2023-05-09T00:01:05.093Z,0.00
2023-05-09T00:02:05.085Z,0.00
2023-05-09T00:03:06.258Z,0.00
2023-05-09T00:04:05.092Z,0.00
2023-05-09T00:05:05.109Z,0.00
2023-05-09T00:06:05.051Z,0.00
2023-05-09T00:07:05.094Z,0.00
2023-05-09T00:08:05.065Z,0.00
2023-05-09T00:09:05.012Z,0.00
2023-05-09T00:10:06.018Z,0.00
2023-05-09T00:11:05.001Z,0.00
2023-05-09T00:12:05.066Z,0.00
2023-05-09T00:13:05.092Z,0.00
2023-05-09T00:14:04.997Z,0.00
2023-05-09T00:15:05.069Z,0.00
2023-05-09T00:16:05.087Z,0.00
2023-05-09T00:17:05.014Z,0.00
2023-05-09T00:18:05.101Z,0.00
2023-05-09T00:19:05.057Z,0.00
2023-05-09T00:20:05.052Z,0.00
2023-05-09T00:21:05.081Z,0.00
2023-05-09T00:22:04.950Z,0.00
2023-05-09T00:23:04.915Z,0.00
2023-05-09T00:24:04.899Z,0.00
2023-05-09T00:25:04.896Z,0.00
2023-05-09T00:26:04.916Z,0.00
2023-05-09T00:27:04.879Z,0.00
2023-05-09T00:28:04.874Z,0.00
2023-05-09T00:29:04.865Z,0.00
2023-05-09T00:30:04.872Z,0.00
2023-05-09T00:31:04.892Z,0.00
2023-05-09T00:32:04.888Z,0.00
2023-05-09T00:33:04.882Z,0.00
2023-05-09T00:34:04.841Z,0.00
2023-05-09T00:35:04.905Z,0.00
2023-05-09T00:36:04.842Z,0.00
2023-05-09T00:37:04.804Z,0.00
2023-05-09T00:38:04.842Z,0.00
2023-05-09T00:39:04.797Z,0.00
2023-05-09T00:40:04.808Z,0.00
2023-05-09T00:41:04.808Z,0.00
2023-05-09T00:42:04.776Z,0.00
2023-05-09T00:43:04.766Z,0.00
2023-05-09T00:44:04.757Z,0.00
2023-05-09T00:45:04.771Z,0.00
2023-05-09T00:46:04.812Z,0.00
2023-05-09T00:47:04.733Z,0.00
2023-05-09T00:48:04.774Z,0.00
2023-05-09T00:49:04.736Z,0.00
2023-05-09T00:50:04.734Z,0.00
2023-05-09T00:51:04.785Z,0.00
2023-05-09T00:52:04.758Z,0.00
2023-05-09T00:53:04.715Z,0.00
2023-05-09T00:54:05.557Z,0.00
2023-05-09T00:55:04.777Z,0.00
2023-05-09T00:56:04.655Z,0.00
2023-05-09T00:57:04.669Z,0.00
2023-05-09T00:58:04.649Z,0.00
2023-05-09T00:59:04.671Z,0.00
2023-05-09T01:00:04.653Z,0.00
2023-05-09T01:01:04.684Z,0.00
2023-05-09T01:02:04.649Z,0.00
2023-05-09T01:03:04.667Z,0.00
2023-05-09T01:04:04.625Z,0.00
2023-05-09T01:05:04.591Z,0.00
2023-05-09T01:06:04.599Z,0.00
2023-05-09T01:07:04.653Z,0.00
2023-05-09T01:08:04.595Z,0.00
2023-05-09T01:09:04.585Z,0.00
2023-05-09T01:10:04.550Z,0.00
2023-05-09T01:11:04.554Z,0.00
2023-05-09T01:12:04.543Z,0.00
2023-05-09T01:13:04.589Z,0.00
2023-05-09T01:14:04.521Z,0.00
2023-05-09T01:15:04.512Z,0.00
2023-05-09T01:16:04.555Z,0.00
2023-05-09T01:17:04.499Z,0.00
2023-05-09T01:18:04.586Z,0.00
2023-05-09T01:19:04.494Z,0.00
2023-05-09T01:20:04.491Z,0.00
2023-05-09T01:21:04.480Z,0.00
2023-05-09T01:22:04.494Z,0.00
2023-05-09T01:23:04.572Z,0.00
2023-05-09T01:24:04.464Z,0.00
2023-05-09T01:25:04.449Z,0.00
2023-05-09T01:26:04.440Z,0.00
2023-05-09T01:27:04.455Z,0.00
2023-05-09T01:28:04.419Z,0.00
2023-05-09T01:29:04.419Z,0.00
2023-05-09T01:30:04.428Z,0.00
2023-05-09T01:31:04.408Z,0.00
2023-05-09T01:32:04.426Z,0.00
2023-05-09T01:33:04.450Z,0.00
2023-05-09T01:34:04.392Z,0.00
2023-05-09T01:35:04.393Z,0.00
2023-05-09T01:36:04.392Z,0.00
2023-05-09T01:37:04.374Z,0.00
2023-05-09T01:38:04.337Z,0.00
2023-05-09T01:39:04.426Z,0.00
2023-05-09T01:40:04.340Z,0.00
2023-05-09T01:41:04.347Z,0.00
2023-05-09T01:42:04.310Z,0.00
2023-05-09T01:43:04.302Z,0.00
2023-05-09T01:44:04.297Z,0.00
2023-05-09T01:45:04.288Z,0.00
2023-05-09T01:46:04.301Z,0.00
2023-05-09T01:47:04.276Z,0.00
2023-05-09T01:48:04.330Z,0.00
2023-05-09T01:49:04.261Z,0.00
2023-05-09T01:50:04.282Z,0.00
2023-05-09T01:51:04.262Z,0.00
2023-05-09T01:52:04.240Z,0.00
2023-05-09T01:53:04.228Z,0.00
2023-05-09T01:54:04.210Z,0.00
2023-05-09T01:55:04.325Z,0.00
2023-05-09T01:56:04.205Z,0.00
2023-05-09T01:57:04.197Z,0.00
2023-05-09T01:58:04.197Z,0.00
2023-05-09T01:59:04.190Z,0.00
2023-05-09T02:00:04.204Z,0.00
2023-05-09T02:01:04.197Z,0.00
2023-05-09T02:02:04.177Z,0.00
2023-05-09T02:03:04.168Z,0.00
2023-05-09T02:04:04.169Z,0.00
2023-05-09T02:05:04.156Z,0.00
2023-05-09T02:06:04.133Z,0.00
2023-05-09T02:07:04.122Z,0.00
2023-05-09T02:08:04.116Z,0.00
2023-05-09T02:09:04.140Z,0.00
2023-05-09T02:10:04.104Z,0.00
2023-05-09T02:11:04.204Z,0.00
2023-05-09T02:12:04.077Z,0.00
2023-05-09T02:13:04.162Z,0.00
2023-05-09T02:14:04.090Z,0.00
2023-05-09T02:15:04.052Z,0.00
2023-05-09T02:16:04.060Z,0.00
2023-05-09T02:17:04.081Z,0.00
2023-05-09T02:18:04.101Z,0.00
2023-05-09T02:19:04.060Z,0.00
2023-05-09T02:20:04.024Z,0.00
2023-05-09T02:21:04.042Z,0.00
2023-05-09T02:22:04.003Z,0.00
2023-05-09T02:23:04.043Z,0.00
2023-05-09T02:24:03.986Z,0.00
2023-05-09T02:25:03.978Z,0.00
2023-05-09T02:26:03.980Z,0.00
2023-05-09T02:27:04.045Z,0.00
2023-05-09T02:28:03.983Z,0.00
2023-05-09T02:29:03.952Z,0.00
2023-05-09T02:30:03.937Z,0.00
2023-05-09T02:31:03.928Z,0.00
2023-05-09T02:32:03.972Z,0.00
2023-05-09T02:33:03.993Z,0.00
2023-05-09T02:34:03.925Z,0.00
2023-05-09T02:35:03.910Z,0.00
2023-05-09T02:36:03.937Z,0.00
2023-05-09T02:37:05.031Z,0.00
2023-05-09T02:38:03.887Z,0.00
2023-05-09T02:39:03.873Z,0.00
2023-05-09T02:40:03.868Z,0.00
2023-05-09T02:41:03.883Z,0.00
2023-05-09T02:42:03.876Z,0.00
2023-05-09T02:43:03.917Z,0.00
2023-05-09T02:44:03.836Z,0.00
2023-05-09T02:45:03.839Z,0.00
2023-05-09T02:46:03.872Z,0.00
2023-05-09T02:47:03.848Z,0.00
2023-05-09T02:48:05.670Z,0.00
2023-05-09T02:49:03.790Z,0.00
2023-05-09T02:50:04.812Z,0.00
2023-05-09T02:51:03.865Z,0.00
2023-05-09T02:52:03.793Z,0.00
2023-05-09T02:53:03.789Z,0.00
2023-05-09T02:54:03.755Z,0.00
2023-05-09T02:55:03.763Z,0.00
2023-05-09T02:56:03.766Z,0.00
2023-05-09T02:57:03.751Z,0.00
2023-05-09T02:58:13.614Z,0.00
2023-05-09T02:59:05.796Z,0.00
2023-05-09T03:00:03.713Z,0.00
2023-05-09T03:01:03.797Z,0.00
2023-05-09T03:02:03.697Z,0.00
2023-05-09T03:03:03.730Z,0.00
2023-05-09T03:04:03.680Z,4.00
2023-05-09T03:05:03.750Z,0.00
2023-05-09T03:06:03.693Z,0.00
2023-05-09T03:07:03.655Z,4.00
2023-05-09T03:08:03.647Z,0.00
2023-05-09T03:09:03.659Z,4.00
2023-05-09T03:10:03.668Z,0.00
2023-05-09T03:11:03.665Z,4.00
2023-05-09T03:12:03.642Z,4.00
2023-05-09T03:13:03.687Z,0.00
2023-05-09T03:14:03.608Z,0.00
2023-05-09T03:15:03.744Z,4.00
2023-05-09T03:16:03.640Z,4.00
2023-05-09T03:17:03.585Z,4.00
2023-05-09T03:18:03.665Z,4.00
2023-05-09T03:19:03.603Z,8.00
2023-05-09T03:20:04.472Z,8.00
2023-05-09T03:21:04.545Z,8.00
2023-05-09T03:22:03.540Z,8.00
2023-05-09T03:23:03.540Z,12.00
2023-05-09T03:24:03.555Z,12.00
2023-05-09T03:25:03.515Z,16.00
2023-05-09T03:26:03.520Z,16.00
2023-05-09T03:27:03.505Z,20.00
2023-05-09T03:28:03.497Z,20.00
2023-05-09T03:29:03.519Z,28.00
2023-05-09T03:30:03.507Z,28.00
2023-05-09T03:31:03.577Z,32.00
2023-05-09T03:32:03.475Z,36.00
2023-05-09T03:33:03.558Z,44.00
2023-05-09T03:34:03.481Z,44.00
2023-05-09T03:35:03.436Z,52.00
2023-05-09T03:36:03.458Z,60.00
2023-05-09T03:37:03.430Z,64.00
2023-05-09T03:38:03.460Z,68.00
2023-05-09T03:39:03.414Z,72.00
2023-05-09T03:40:03.405Z,80.00
2023-05-09T03:41:03.410Z,88.00
2023-05-09T03:42:03.390Z,96.00
2023-05-09T03:43:03.431Z,108.00
2023-05-09T03:44:03.406Z,116.00
2023-05-09T03:45:03.392Z,124.00
2023-05-09T03:46:03.372Z,132.00
2023-05-09T03:47:03.533Z,144.00
2023-05-09T03:48:03.403Z,156.00
2023-05-09T03:49:03.347Z,168.00
2023-05-09T03:50:03.353Z,180.00
2023-05-09T03:51:03.341Z,192.00
2023-05-09T03:52:03.354Z,212.00
2023-05-09T03:53:03.314Z,224.00
2023-05-09T03:54:03.315Z,240.00
2023-05-09T03:55:03.293Z,256.00
2023-05-09T03:56:04.297Z,272.00
2023-05-09T03:57:03.308Z,292.00
2023-05-09T03:58:03.274Z,316.00
2023-05-09T03:59:03.281Z,336.00
2023-05-09T04:00:03.279Z,360.00
2023-05-09T04:01:03.260Z,380.00
2023-05-09T04:02:03.375Z,404.00
2023-05-09T04:03:03.309Z,428.00
2023-05-09T04:04:03.277Z,452.00
2023-05-09T04:05:03.248Z,484.00
2023-05-09T04:06:03.233Z,516.00
2023-05-09T04:07:03.231Z,548.00
2023-05-09T04:08:03.207Z,584.00
2023-05-09T04:09:03.203Z,624.00
2023-05-09T04:10:03.197Z,660.00
2023-05-09T04:11:03.189Z,704.00
2023-05-09T04:12:04.165Z,744.00
2023-05-09T04:13:03.260Z,784.00
2023-05-09T04:14:03.159Z,944.00
2023-05-09T04:15:03.169Z,1588.00
2023-05-09T04:16:03.182Z,2364.00
2023-05-09T04:17:03.373Z,2484.00
2023-05-09T04:18:04.209Z,2172.00
2023-05-09T04:19:03.203Z,2392.00
2023-05-09T04:20:03.181Z,2576.00
2023-05-09T04:21:03.132Z,2384.00
2023-05-09T04:22:03.183Z,2824.00
2023-05-09T04:23:03.106Z,3804.00
2023-05-09T04:24:03.090Z,4264.00
2023-05-09T04:25:03.113Z,4004.00
2023-05-09T04:26:03.096Z,3896.00
2023-05-09T04:27:03.067Z,4120.00
2023-05-09T04:28:03.056Z,4352.00
2023-05-09T04:29:03.051Z,4608.00
2023-05-09T04:30:03.076Z,4740.00
2023-05-09T04:31:03.108Z,4848.00
2023-05-09T04:32:03.143Z,5020.00
2023-05-09T04:33:03.086Z,5240.00
2023-05-09T04:34:03.042Z,5484.00
2023-05-09T04:35:03.112Z,5784.00
2023-05-09T04:36:02.994Z,6064.00
2023-05-09T04:37:03.019Z,6220.00
2023-05-09T04:38:03.003Z,6428.00
2023-05-09T04:39:03.007Z,6660.00
2023-05-09T04:40:02.963Z,6812.00
2023-05-09T04:41:02.958Z,7004.00
2023-05-09T04:42:02.945Z,7152.00
2023-05-09T04:43:02.936Z,7472.00
2023-05-09T04:44:02.957Z,7800.00
2023-05-09T04:45:02.954Z,8172.00
2023-05-09T04:46:02.943Z,8716.00
2023-05-09T04:47:02.909Z,10912.00
2023-05-09T04:48:02.970Z,14912.00
2023-05-09T04:49:02.930Z,18464.00
2023-05-09T04:50:02.897Z,19712.00
2023-05-09T04:51:02.979Z,20128.00
2023-05-09T04:52:02.875Z,20416.00
2023-05-09T04:53:02.896Z,20352.00
2023-05-09T04:54:02.876Z,21504.00
2023-05-09T04:55:02.907Z,22016.00
2023-05-09T04:56:02.841Z,22752.00
2023-05-09T04:57:13.665Z,23168.00
2023-05-09T04:58:04.850Z,22944.00
2023-05-09T04:59:02.818Z,23264.00
2023-05-09T05:00:02.822Z,24096.00
2023-05-09T05:01:02.811Z,24960.00
2023-05-09T05:02:02.972Z,25664.00
2023-05-09T05:03:02.821Z,26496.00
2023-05-09T05:04:02.779Z,26144.00
2023-05-09T05:05:11.622Z,26080.00
2023-05-09T05:06:04.841Z,26880.00
2023-05-09T05:07:02.830Z,27616.00
2023-05-09T05:08:02.769Z,28544.00
2023-05-09T05:09:02.738Z,29120.00
2023-05-09T05:10:02.741Z,29536.00
2023-05-09T05:11:02.720Z,28064.00
2023-05-09T05:12:04.821Z,28256.00
2023-05-09T05:13:03.746Z,29216.00
2023-05-09T05:14:02.711Z,30400.00
2023-05-09T05:15:02.700Z,31904.00
2023-05-09T05:16:02.709Z,33408.00
2023-05-09T05:17:02.705Z,34048.00
2023-05-09T05:18:02.711Z,33472.00
2023-05-09T05:19:02.676Z,29408.00
2023-05-09T05:20:02.708Z,33504.00
2023-05-09T05:21:02.680Z,32672.00
2023-05-09T05:22:02.749Z,14880.00
2023-05-09T05:23:02.639Z,24800.00
2023-05-09T05:24:02.737Z,10460.00
2023-05-09T05:25:02.678Z,13632.00
2023-05-09T05:26:02.748Z,26784.00
2023-05-09T05:27:02.610Z,22144.00
2023-05-09T05:28:02.607Z,14912.00
2023-05-09T05:29:02.589Z,7848.00
2023-05-09T05:30:02.583Z,5488.00
2023-05-09T05:31:02.605Z,7008.00
2023-05-09T05:32:02.585Z,6340.00
2023-05-09T05:33:02.583Z,5872.00
2023-05-09T05:34:02.549Z,5656.00
2023-05-09T05:35:02.612Z,5524.00
2023-05-09T05:36:02.559Z,5448.00
2023-05-09T05:37:02.562Z,5496.00
2023-05-09T05:38:02.608Z,5432.00
2023-05-09T05:39:02.508Z,5456.00
2023-05-09T05:40:02.566Z,5468.00
2023-05-09T05:41:02.496Z,5500.00
2023-05-09T05:42:35.258Z,5536.00
2023-05-09T05:43:02.483Z,5548.00
2023-05-09T05:44:02.477Z,5564.00
2023-05-09T05:45:02.491Z,5496.00
2023-05-09T05:46:02.479Z,5392.00
2023-05-09T05:47:02.477Z,5312.00
2023-05-09T05:48:02.558Z,5172.00
2023-05-09T05:49:02.458Z,5176.00
2023-05-09T05:50:02.451Z,5168.00
2023-05-09T05:51:02.410Z,5116.00
2023-05-09T05:52:03.402Z,5040.00
2023-05-09T05:53:02.403Z,5000.00
2023-05-09T05:54:02.573Z,4916.00
2023-05-09T05:55:02.388Z,4856.00
2023-05-09T05:56:02.394Z,4808.00
2023-05-09T05:57:02.408Z,4764.00
2023-05-09T05:58:02.377Z,4708.00
2023-05-09T05:59:02.384Z,4636.00
2023-05-09T06:00:02.351Z,4604.00
2023-05-09T06:01:02.352Z,4580.00
2023-05-09T06:02:02.390Z,4564.00
2023-05-09T06:03:02.406Z,4560.00
2023-05-09T06:04:02.391Z,4568.00
2023-05-09T06:05:02.316Z,4572.00
2023-05-09T06:06:02.311Z,4576.00
2023-05-09T06:07:02.315Z,4532.00
2023-05-09T06:08:02.381Z,4500.00
2023-05-09T06:09:02.306Z,4492.00
2023-05-09T06:10:02.268Z,4476.00
2023-05-09T06:11:02.263Z,3988.00
2023-05-09T06:12:02.250Z,3824.00
2023-05-09T06:13:02.343Z,4472.00
2023-05-09T06:14:02.251Z,3784.00
2023-05-09T06:15:02.239Z,3644.00
2023-05-09T06:16:15.021Z,3852.00
2023-05-09T06:17:04.266Z,3636.00
2023-05-09T06:18:02.270Z,4392.00
2023-05-09T06:19:02.222Z,4276.00
2023-05-09T06:20:02.191Z,4268.00
2023-05-09T06:21:02.203Z,4216.00
2023-05-09T06:22:02.239Z,3856.00
2023-05-09T06:23:02.176Z,3748.00
2023-05-09T06:24:11.892Z,3860.00
2023-05-09T06:25:04.161Z,3408.00
2023-05-09T06:26:02.235Z,3224.00
2023-05-09T06:27:02.165Z,2960.00
2023-05-09T06:28:02.130Z,3484.00
2023-05-09T06:29:02.174Z,3592.00
2023-05-09T06:30:08.309Z,3376.00
2023-05-09T06:31:04.225Z,3776.00
2023-05-09T06:32:02.136Z,3832.00
2023-05-09T06:33:02.120Z,3960.00
2023-05-09T06:34:02.100Z,4072.00
2023-05-09T06:35:02.084Z,4140.00
2023-05-09T06:36:02.098Z,4148.00
2023-05-09T06:37:02.065Z,4148.00
2023-05-09T06:38:02.068Z,4164.00
2023-05-09T06:39:02.103Z,4124.00
2023-05-09T06:40:02.054Z,4120.00
2023-05-09T06:41:02.062Z,4168.00
2023-05-09T06:42:02.123Z,4196.00
2023-05-09T06:43:02.021Z,4212.00
2023-05-09T06:44:02.012Z,4208.00
2023-05-09T06:45:17.113Z,4148.00
2023-05-09T06:46:02.046Z,4156.00
2023-05-09T06:47:01.997Z,4136.00
2023-05-09T06:48:02.012Z,4144.00
2023-05-09T06:49:02.014Z,4156.00
2023-05-09T06:50:02.010Z,4176.00
2023-05-09T06:51:02.017Z,4156.00
2023-05-09T06:52:01.955Z,4184.00
2023-05-09T06:53:01.959Z,4216.00
2023-05-09T06:54:01.940Z,4180.00
2023-05-09T06:55:02.043Z,4184.00
2023-05-09T06:56:01.924Z,4184.00
2023-05-09T06:57:01.911Z,4248.00
2023-05-09T06:58:01.990Z,4196.00
2023-05-09T06:59:01.919Z,3760.00
2023-05-09T07:00:02.389Z,3260.00
2023-05-09T07:01:01.893Z,2964.00
2023-05-09T07:02:01.956Z,2884.00
2023-05-09T07:03:01.924Z,2796.00
2023-05-09T07:04:01.913Z,2736.00
2023-05-09T07:05:01.957Z,2764.00
2023-05-09T07:06:01.850Z,2908.00
2023-05-09T07:07:01.848Z,2864.00
2023-05-09T07:08:01.832Z,2888.00
2023-05-09T07:09:01.853Z,2816.00
2023-05-09T07:10:10.683Z,2684.00
2023-05-09T07:11:03.812Z,2588.00
2023-05-09T07:12:01.813Z,2484.00
2023-05-09T07:13:01.807Z,2372.00
2023-05-09T07:14:01.906Z,2272.00
2023-05-09T07:15:01.807Z,2176.00
2023-05-09T07:16:01.806Z,2148.00
2023-05-09T07:17:18.153Z,2164.00
2023-05-09T07:18:03.794Z,2260.00
2023-05-09T07:19:01.775Z,2392.00
2023-05-09T07:20:01.743Z,2688.00
2023-05-09T07:21:01.734Z,2932.00
2023-05-09T07:22:01.753Z,3284.00
2023-05-09T07:23:01.824Z,3520.00
2023-05-09T07:24:01.754Z,3576.00
2023-05-09T07:25:01.703Z,3584.00
2023-05-09T07:26:01.699Z,3596.00
2023-05-09T07:27:01.692Z,3640.00
2023-05-09T07:28:01.700Z,3728.00
2023-05-09T07:29:01.684Z,3784.00
2023-05-09T07:30:01.764Z,3800.00
2023-05-09T07:31:01.658Z,3688.00
2023-05-09T07:32:01.730Z,3404.00
2023-05-09T07:33:01.898Z,3676.00
2023-05-09T07:34:01.637Z,3640.00
2023-05-09T07:35:01.634Z,3680.00
2023-05-09T07:36:01.619Z,3708.00
2023-05-09T07:37:01.637Z,3680.00
2023-05-09T07:38:01.597Z,3636.00
2023-05-09T07:39:01.600Z,3540.00
2023-05-09T07:40:01.600Z,3484.00
2023-05-09T07:41:01.610Z,3452.00
2023-05-09T07:42:01.605Z,3424.00
2023-05-09T07:43:01.572Z,3404.00
2023-05-09T07:44:01.551Z,3392.00
2023-05-09T07:45:01.541Z,3364.00
2023-05-09T07:46:01.756Z,3324.00
2023-05-09T07:47:01.553Z,3284.00
2023-05-09T07:48:01.605Z,3248.00
2023-05-09T07:49:01.525Z,3236.00
2023-05-09T07:50:01.524Z,3228.00
2023-05-09T07:51:01.524Z,3224.00
2023-05-09T07:52:01.492Z,3224.00
2023-05-09T07:53:01.498Z,3224.00
2023-05-09T07:54:01.475Z,3244.00
2023-05-09T07:55:01.499Z,3264.00
2023-05-09T07:56:01.499Z,3280.00
2023-05-09T07:57:01.444Z,3296.00
2023-05-09T07:58:01.447Z,3316.00
2023-05-09T07:59:01.448Z,3336.00
2023-05-09T08:00:01.459Z,3332.00
2023-05-09T08:01:01.450Z,3344.00
2023-05-09T08:02:01.524Z,3400.00
2023-05-09T08:03:01.633Z,3428.00
2023-05-09T08:04:01.502Z,3460.00
2023-05-09T08:05:01.435Z,3492.00
2023-05-09T08:06:01.385Z,3512.00
2023-05-09T08:07:01.373Z,3520.00
2023-05-09T08:08:01.367Z,3516.00
2023-05-09T08:09:02.363Z,3520.00
2023-05-09T08:10:01.375Z,3548.00
2023-05-09T08:11:01.380Z,3584.00
2023-05-09T08:12:01.338Z,3632.00
2023-05-09T08:13:01.368Z,3692.00
2023-05-09T08:14:01.346Z,3748.00
2023-05-09T08:15:01.382Z,3796.00
2023-05-09T08:16:01.364Z,3884.00
2023-05-09T08:17:01.301Z,3936.00
2023-05-09T08:18:01.433Z,3980.00
2023-05-09T08:19:01.309Z,4012.00
2023-05-09T08:20:01.308Z,4080.00
2023-05-09T08:21:01.270Z,4084.00
2023-05-09T08:22:01.299Z,3156.00
2023-05-09T08:23:02.262Z,4032.00
2023-05-09T08:24:01.279Z,4080.00
2023-05-09T08:25:01.248Z,4080.00
2023-05-09T08:26:01.252Z,4080.00
2023-05-09T08:27:01.236Z,3908.00
2023-05-09T08:28:01.249Z,3632.00
2023-05-09T08:29:01.247Z,3892.00
2023-05-09T08:30:01.232Z,3976.00
2023-05-09T08:31:01.267Z,4092.00
2023-05-09T08:32:01.207Z,4132.00
2023-05-09T08:33:01.257Z,4152.00
2023-05-09T08:34:01.253Z,4212.00
2023-05-09T08:35:01.157Z,4228.00
2023-05-09T08:36:01.180Z,4200.00
2023-05-09T08:37:01.157Z,4164.00
2023-05-09T08:38:01.190Z,4136.00
2023-05-09T08:39:01.135Z,4060.00
2023-05-09T08:40:01.126Z,4028.00
2023-05-09T08:41:01.121Z,3996.00
2023-05-09T08:42:01.116Z,4060.00
2023-05-09T08:43:01.127Z,2848.00
2023-05-09T08:44:01.101Z,4080.00
2023-05-09T08:45:01.090Z,3980.00
2023-05-09T08:46:01.213Z,2696.00
2023-05-09T08:47:01.270Z,3576.00
2023-05-09T08:48:01.120Z,3984.00
2023-05-09T08:49:01.061Z,4112.00
2023-05-09T08:50:01.151Z,3044.00
2023-05-09T08:51:01.072Z,2728.00
2023-05-09T08:52:01.063Z,2868.00
2023-05-09T08:53:01.047Z,2800.00
2023-05-09T08:54:02.018Z,2500.00
2023-05-09T08:55:01.032Z,3744.00
2023-05-09T08:56:01.009Z,3676.00
2023-05-09T08:57:01.016Z,3716.00
2023-05-09T08:58:00.987Z,3612.00
2023-05-09T08:59:00.998Z,3380.00
2023-05-09T09:00:00.969Z,3368.00
2023-05-09T09:01:00.965Z,3488.00
2023-05-09T09:02:01.012Z,3744.00
2023-05-09T09:03:00.969Z,3776.00
2023-05-09T09:04:00.956Z,3624.00
2023-05-09T09:05:00.948Z,2996.00
2023-05-09T09:06:01.090Z,3524.00
2023-05-09T09:07:00.961Z,3760.00
2023-05-09T09:08:00.914Z,3780.00
2023-05-09T09:09:00.910Z,3264.00
2023-05-09T09:10:00.904Z,3648.00
2023-05-09T09:11:00.929Z,3848.00
2023-05-09T09:12:00.905Z,4020.00
2023-05-09T09:13:00.879Z,4212.00
2023-05-09T09:14:01.851Z,3456.00
2023-05-09T09:15:00.889Z,4164.00
2023-05-09T09:16:00.949Z,4064.00
2023-05-09T09:17:00.878Z,3736.00
2023-05-09T09:18:01.078Z,3896.00
2023-05-09T09:19:00.828Z,2792.00
2023-05-09T09:20:00.843Z,3008.00
2023-05-09T09:21:00.838Z,3040.00
2023-05-09T09:22:00.900Z,3588.00
2023-05-09T09:23:00.801Z,2760.00
2023-05-09T09:24:00.802Z,2380.00
2023-05-09T09:25:00.836Z,2304.00
2023-05-09T09:26:01.017Z,2324.00
2023-05-09T09:27:00.768Z,2304.00
2023-05-09T09:28:00.756Z,2264.00
2023-05-09T09:29:00.764Z,2272.00
2023-05-09T09:30:00.794Z,2296.00
2023-05-09T09:31:00.743Z,2372.00
2023-05-09T09:32:00.777Z,2564.00
2023-05-09T09:33:00.802Z,3460.00
2023-05-09T09:34:00.734Z,3300.00
2023-05-09T09:35:01.751Z,2716.00
2023-05-09T09:36:00.709Z,2772.00
2023-05-09T09:37:00.735Z,2540.00
2023-05-09T09:38:00.775Z,2492.00
2023-05-09T09:39:00.705Z,2492.00
2023-05-09T09:40:00.678Z,2496.00
2023-05-09T09:41:00.661Z,2528.00
2023-05-09T09:42:00.783Z,2480.00
2023-05-09T09:43:00.652Z,2468.00
2023-05-09T09:44:00.669Z,2448.00
2023-05-09T09:45:00.627Z,2400.00
2023-05-09T09:46:00.653Z,2328.00
2023-05-09T09:47:00.611Z,2272.00
2023-05-09T09:48:00.660Z,2212.00
2023-05-09T09:49:00.629Z,2156.00
2023-05-09T09:50:00.601Z,2156.00
2023-05-09T09:51:00.585Z,2180.00
2023-05-09T09:52:00.585Z,2212.00
2023-05-09T09:53:00.606Z,2300.00
2023-05-09T09:54:00.564Z,2404.00
2023-05-09T09:55:00.551Z,2424.00
2023-05-09T09:56:00.564Z,2448.00
2023-05-09T09:57:00.546Z,2544.00
2023-05-09T09:58:00.557Z,2760.00
2023-05-09T09:59:00.522Z,2992.00
2023-05-09T10:00:00.545Z,2856.00
2023-05-09T10:01:00.515Z,2788.00
2023-05-09T10:02:00.530Z,2844.00
2023-05-09T10:03:00.550Z,2608.00
2023-05-09T10:04:01.522Z,2628.00
2023-05-09T10:05:00.477Z,2760.00
2023-05-09T10:06:00.467Z,3048.00
2023-05-09T10:07:00.496Z,2948.00
2023-05-09T10:08:00.468Z,3076.00
2023-05-09T10:09:00.447Z,3640.00
2023-05-09T10:10:00.539Z,3336.00
2023-05-09T10:11:00.432Z,3256.00
2023-05-09T10:12:00.450Z,3640.00
2023-05-09T10:13:00.452Z,3376.00
2023-05-09T10:14:00.415Z,2980.00
2023-05-09T10:15:00.406Z,3532.00
2023-05-09T10:16:00.596Z,3316.00
2023-05-09T10:17:00.455Z,2260.00
2023-05-09T10:18:01.506Z,2408.00
2023-05-09T10:19:00.396Z,2384.00
2023-05-09T10:20:00.363Z,2708.00
2023-05-09T10:21:00.399Z,2456.00
2023-05-09T10:22:00.359Z,3252.00
2023-05-09T10:23:00.344Z,2692.00
2023-05-09T10:24:00.355Z,3632.00
2023-05-09T10:25:00.339Z,3792.00
2023-05-09T10:26:00.419Z,3876.00
2023-05-09T10:27:00.319Z,3800.00
2023-05-09T10:28:00.307Z,3804.00
2023-05-09T10:29:00.300Z,3676.00
2023-05-09T10:30:00.325Z,2556.00
2023-05-09T10:31:00.337Z,2288.00
2023-05-09T10:32:00.268Z,2228.00
2023-05-09T10:33:00.296Z,2200.00
2023-05-09T10:34:00.256Z,2180.00
2023-05-09T10:35:00.278Z,2188.00
2023-05-09T10:36:00.278Z,2248.00
2023-05-09T10:37:00.243Z,2248.00
2023-05-09T10:38:00.226Z,2176.00
2023-05-09T10:39:00.222Z,2188.00
2023-05-09T10:40:00.231Z,2220.00
2023-05-09T10:41:00.199Z,2300.00
2023-05-09T10:42:00.281Z,2324.00
2023-05-09T10:43:00.222Z,2324.00
2023-05-09T10:44:00.203Z,2304.00
2023-05-09T10:45:00.264Z,2336.00
2023-05-09T10:46:00.168Z,2480.00
2023-05-09T10:47:00.292Z,3548.00
2023-05-09T10:48:00.261Z,3180.00
2023-05-09T10:49:00.174Z,3128.00
2023-05-09T10:50:00.165Z,3304.00
2023-05-09T10:51:00.125Z,2888.00
2023-05-09T10:52:00.145Z,3100.00
2023-05-09T10:53:00.128Z,2800.00
2023-05-09T10:54:00.146Z,2876.00
2023-05-09T10:55:00.144Z,3360.00
2023-05-09T10:56:00.122Z,2832.00
2023-05-09T10:57:00.099Z,2712.00
2023-05-09T10:58:00.192Z,2364.00
2023-05-09T10:59:00.111Z,2336.00
2023-05-09T11:00:00.077Z,2640.00
2023-05-09T11:01:00.099Z,2636.00
2023-05-09T11:02:00.080Z,2540.00
2023-05-09T11:03:00.180Z,3244.00
2023-05-09T11:04:00.156Z,2468.00
2023-05-09T11:05:00.030Z,2368.00
2023-05-09T11:06:00.075Z,2432.00
2023-05-09T11:07:00.027Z,2500.00
2023-05-09T11:08:00.054Z,2588.00
2023-05-09T11:08:59.995Z,2680.00
2023-05-09T11:09:59.991Z,2624.00
2023-05-09T11:10:59.982Z,2668.00
2023-05-09T11:11:59.986Z,2732.00
2023-05-09T11:13:00.029Z,2572.00
2023-05-09T11:14:00.050Z,2456.00
2023-05-09T11:14:59.968Z,2396.00
2023-05-09T11:16:00.080Z,2640.00
2023-05-09T11:16:59.977Z,2572.00
2023-05-09T11:18:00.005Z,2388.00
2023-05-09T11:18:59.934Z,2588.00
2023-05-09T11:19:59.930Z,2512.00
2023-05-09T11:20:59.938Z,2956.00
2023-05-09T11:21:59.940Z,3032.00
2023-05-09T11:22:59.903Z,3304.00
2023-05-09T11:23:59.888Z,2828.00
2023-05-09T11:24:59.899Z,3696.00
2023-05-09T11:25:59.882Z,3008.00
2023-05-09T11:26:59.894Z,2612.00
2023-05-09T11:27:59.865Z,2624.00
2023-05-09T11:28:59.861Z,2632.00
2023-05-09T11:29:59.927Z,2608.00
2023-05-09T11:30:59.868Z,2496.00
2023-05-09T11:31:59.888Z,2404.00
2023-05-09T11:32:59.861Z,2348.00
2023-05-09T11:33:59.831Z,2292.00
2023-05-09T11:34:59.815Z,2424.00
2023-05-09T11:35:59.815Z,2232.00
2023-05-09T11:36:59.890Z,2312.00
2023-05-09T11:37:59.785Z,2468.00
2023-05-09T11:38:59.775Z,2204.00
2023-05-09T11:39:59.772Z,2180.00
2023-05-09T11:40:59.799Z,2148.00
2023-05-09T11:42:32.427Z,2160.00
2023-05-09T11:42:59.746Z,2172.00
2023-05-09T11:43:59.751Z,2160.00
2023-05-09T11:44:59.984Z,2156.00
2023-05-09T11:46:00.000Z,2168.00
2023-05-09T11:46:59.809Z,2224.00
2023-05-09T11:47:59.735Z,2280.00
2023-05-09T11:48:59.716Z,2320.00
2023-05-09T11:49:59.719Z,2340.00
2023-05-09T11:50:59.722Z,2416.00
2023-05-09T11:51:59.681Z,2432.00
2023-05-09T11:52:59.671Z,2584.00
2023-05-09T11:53:59.662Z,2580.00
2023-05-09T11:54:59.778Z,2656.00
2023-05-09T11:55:59.640Z,3240.00
2023-05-09T11:56:59.822Z,3352.00
2023-05-09T11:57:59.645Z,3032.00
2023-05-09T11:58:59.703Z,3596.00
2023-05-09T11:59:59.867Z,3688.00
2023-05-09T12:00:59.608Z,3048.00
2023-05-09T12:01:59.701Z,3788.00
2023-05-09T12:02:59.618Z,3772.00
2023-05-09T12:03:59.708Z,3804.00
2023-05-09T12:04:59.605Z,3832.00
2023-05-09T12:05:59.567Z,3676.00
2023-05-09T12:06:59.571Z,3844.00
2023-05-09T12:07:59.572Z,3664.00
2023-05-09T12:08:59.574Z,3748.00
2023-05-09T12:09:59.577Z,2976.00
2023-05-09T12:10:59.538Z,2984.00
2023-05-09T12:11:59.543Z,3560.00
2023-05-09T12:12:59.539Z,3452.00
2023-05-09T12:13:59.609Z,3384.00
2023-05-09T12:14:59.506Z,3204.00
2023-05-09T12:15:59.555Z,3200.00
2023-05-09T12:16:59.490Z,3224.00
2023-05-09T12:17:59.622Z,3344.00
2023-05-09T12:18:59.520Z,3276.00
2023-05-09T12:19:59.455Z,3256.00
2023-05-09T12:20:59.447Z,3228.00
2023-05-09T12:21:59.452Z,3192.00
2023-05-09T12:22:59.476Z,3112.00
2023-05-09T12:23:59.486Z,3032.00
2023-05-09T12:24:59.432Z,3008.00